createdAt,value
2023-05-12T00:01:16.871Z,10.96
2023-05-12T00:03:44.168Z,11.17
2023-05-12T00:06:11.591Z,10.89
2023-05-12T00:08:38.621Z,11.22
2023-05-12T00:11:05.542Z,11.33
2023-05-12T00:13:32.461Z,10.62
2023-05-12T00:15:59.501Z,11.11
2023-05-12T00:18:28.428Z,11.20
2023-05-12T00:20:55.773Z,10.72
2023-05-12T00:23:23.005Z,10.72
2023-05-12T00:25:50.558Z,10.76
2023-05-12T00:28:18.849Z,10.87
2023-05-12T00:30:46.004Z,10.83
2023-05-12T00:33:13.276Z,11.07
2023-05-12T00:35:40.212Z,11.24
2023-05-12T00:38:07.074Z,11.20
2023-05-12T00:40:33.727Z,11.49
2023-05-12T00:43:00.712Z,11.35
2023-05-12T00:45:29.689Z,11.20
2023-05-12T00:47:57.161Z,11.24
2023-05-12T00:50:24.334Z,11.28
2023-05-12T00:52:51.350Z,10.91
2023-05-12T00:55:18.240Z,10.95
2023-05-12T00:57:45.766Z,10.78
2023-05-12T01:00:13.238Z,11.12
2023-05-12T01:02:40.302Z,10.85
2023-05-12T01:05:07.728Z,11.11
2023-05-12T01:07:34.638Z,11.01
2023-05-12T01:10:01.544Z,10.58
2023-05-12T01:12:28.638Z,10.89
2023-05-12T01:14:56.554Z,11.14
2023-05-12T01:17:29.106Z,11.11
2023-05-12T01:20:00.844Z,11.01
2023-05-12T01:22:31.702Z,11.00
2023-05-12T01:25:06.981Z,11.21
2023-05-12T01:27:34.529Z,11.13
2023-05-12T01:30:03.321Z,11.41
2023-05-12T01:32:30.704Z,11.11
2023-05-12T01:34:57.685Z,11.28
2023-05-12T01:37:27.321Z,11.22
2023-05-12T01:39:54.842Z,11.05
2023-05-12T01:42:21.866Z,10.83
2023-05-12T01:44:48.748Z,10.92
2023-05-12T01:47:16.158Z,10.84
2023-05-12T01:49:43.063Z,11.02
2023-05-12T01:52:09.734Z,10.77
2023-05-12T01:54:36.604Z,10.88
2023-05-12T01:57:03.543Z,11.10
2023-05-12T01:59:30.363Z,11.11
2023-05-12T02:01:57.122Z,10.88
2023-05-12T02:04:24.029Z,11.33
2023-05-12T02:06:52.024Z,10.94
2023-05-12T02:09:18.924Z,10.95
2023-05-12T02:11:45.804Z,10.49
2023-05-12T02:14:12.690Z,11.14
2023-05-12T02:16:39.532Z,10.63
2023-05-12T02:19:06.585Z,10.95
2023-05-12T02:21:33.764Z,10.66
2023-05-12T02:24:00.804Z,11.14
2023-05-12T02:26:27.718Z,10.74
2023-05-12T02:28:54.670Z,10.81
2023-05-12T02:31:21.523Z,11.20
2023-05-12T02:33:48.665Z,10.57
2023-05-12T02:36:15.518Z,11.08
2023-05-12T02:38:42.243Z,10.91
2023-05-12T02:41:09.076Z,11.10
2023-05-12T02:43:35.777Z,10.57
2023-05-12T02:46:02.875Z,11.12
2023-05-12T02:48:29.738Z,11.05
2023-05-12T02:50:56.391Z,11.33
2023-05-12T02:53:23.268Z,11.76
2023-05-12T02:55:50.323Z,10.78
2023-05-12T02:58:17.207Z,11.06
2023-05-12T03:00:44.158Z,11.08
2023-05-12T03:03:11.296Z,10.76
2023-05-12T03:05:38.343Z,11.19
2023-05-12T03:08:05.444Z,11.39
2023-05-12T03:10:32.277Z,10.98
2023-05-12T03:12:58.935Z,11.12
2023-05-12T03:15:25.758Z,11.33
2023-05-12T03:17:52.457Z,11.04
2023-05-12T03:20:19.907Z,11.17
2023-05-12T03:22:47.078Z,10.95
2023-05-12T03:25:14.294Z,11.26
2023-05-12T03:27:41.174Z,10.88
2023-05-12T03:30:08.649Z,10.88
2023-05-12T03:32:35.558Z,10.98
2023-05-12T03:35:02.518Z,11.10
2023-05-12T03:37:29.388Z,10.99
2023-05-12T03:39:56.357Z,11.55
2023-05-12T03:42:26.269Z,11.24
2023-05-12T03:44:53.149Z,11.86
2023-05-12T03:47:20.084Z,11.61
2023-05-12T03:49:47.008Z,11.37
2023-05-12T03:52:14.236Z,11.46
2023-05-12T03:54:41.155Z,11.20
2023-05-12T03:57:08.333Z,11.19
2023-05-12T03:59:35.235Z,11.33
2023-05-12T04:02:02.290Z,10.90
2023-05-12T04:04:29.214Z,11.29
2023-05-12T04:06:56.428Z,11.23
2023-05-12T04:09:23.298Z,11.64
2023-05-12T04:11:50.169Z,11.37
2023-05-12T04:14:17.006Z,11.49
2023-05-12T04:16:43.736Z,11.41
2023-05-12T04:19:10.727Z,11.35
2023-05-12T04:21:37.586Z,11.19
2023-05-12T04:24:04.397Z,11.20
2023-05-12T04:26:31.249Z,11.17
2023-05-12T04:28:57.872Z,11.09
2023-05-12T04:31:24.859Z,11.14
2023-05-12T04:33:52.111Z,11.18
2023-05-12T04:36:19.140Z,10.92
2023-05-12T04:38:45.999Z,11.07
2023-05-12T04:41:12.693Z,11.09
2023-05-12T04:46:09.341Z,11.31
2023-05-12T04:48:42.095Z,11.04
2023-05-12T04:51:09.313Z,11.19
2023-05-12T04:53:36.476Z,11.41
2023-05-12T04:56:03.880Z,11.23
2023-05-12T04:58:30.745Z,11.11
2023-05-12T05:00:57.709Z,11.12
2023-05-12T05:03:24.912Z,11.35
2023-05-12T05:05:51.879Z,11.21
2023-05-12T05:08:18.867Z,11.27
2023-05-12T05:10:45.805Z,11.41
2023-05-12T05:13:12.613Z,10.96
2023-05-12T05:15:39.315Z,10.91
2023-05-12T05:18:06.321Z,10.99
2023-05-12T05:20:34.729Z,10.97
2023-05-12T05:23:01.743Z,11.14
2023-05-12T05:25:28.509Z,11.46
2023-05-12T05:27:55.927Z,11.24
2023-05-12T05:30:22.820Z,11.29
2023-05-12T05:32:49.844Z,11.34
2023-05-12T05:35:16.950Z,10.99
2023-05-12T05:37:43.860Z,11.35
2023-05-12T05:40:10.889Z,11.25
2023-05-12T05:42:37.813Z,11.24
2023-05-12T05:45:05.096Z,11.46
2023-05-12T05:47:32.424Z,11.39
2023-05-12T05:52:05.290Z,11.64
2023-05-12T05:54:32.132Z,11.64
2023-05-12T05:57:00.838Z,11.23
2023-05-12T05:59:27.716Z,11.15
2023-05-12T06:01:54.658Z,11.08
2023-05-12T06:04:21.734Z,11.42
2023-05-12T06:06:48.742Z,11.91
2023-05-12T06:09:16.824Z,11.63
2023-05-12T06:11:43.663Z,11.53
2023-05-12T06:14:12.671Z,11.91
2023-05-12T06:16:39.880Z,11.41
2023-05-12T06:19:06.905Z,11.71
2023-05-12T06:21:33.987Z,11.58
2023-05-12T06:24:00.882Z,11.56
2023-05-12T06:26:27.699Z,11.79
2023-05-12T06:28:56.380Z,11.72
2023-05-12T06:31:23.330Z,11.55
2023-05-12T06:33:50.289Z,11.14
2023-05-12T06:49:19.289Z,11.63
2023-05-12T06:51:46.698Z,11.63
2023-05-12T06:54:13.653Z,11.78
2023-05-12T06:56:40.529Z,11.49
2023-05-12T06:59:07.419Z,11.57
2023-05-12T07:01:34.415Z,11.41
2023-05-12T07:04:01.425Z,11.85
2023-05-12T07:06:28.326Z,11.93
2023-05-12T07:08:56.327Z,11.50
2023-05-12T07:11:23.413Z,12.03
2023-05-12T07:13:50.980Z,11.76
2023-05-12T07:16:19.038Z,11.36
2023-05-12T07:18:46.479Z,11.71
2023-05-12T07:21:13.532Z,11.57
2023-05-12T07:23:40.737Z,11.53
2023-05-12T07:26:08.175Z,11.29
2023-05-12T07:28:36.817Z,11.57
2023-05-12T07:31:07.608Z,11.33
2023-05-12T07:33:35.623Z,11.15
2023-05-12T07:36:02.943Z,11.27
2023-05-12T07:38:32.338Z,11.13
2023-05-12T07:41:00.781Z,11.32
2023-05-12T07:43:27.775Z,11.63
2023-05-12T07:45:56.248Z,11.33
2023-05-12T07:48:23.151Z,11.41
2023-05-12T07:50:49.976Z,11.02
2023-05-12T07:53:16.662Z,11.25
2023-05-12T07:55:44.230Z,11.23
2023-05-12T07:58:12.480Z,11.77
2023-05-12T08:00:39.688Z,11.62
2023-05-12T08:03:07.830Z,11.61
2023-05-12T08:05:34.815Z,11.93
2023-05-12T08:08:01.716Z,12.01
2023-05-12T08:10:30.074Z,11.56
2023-05-12T08:12:57.151Z,11.51
2023-05-12T08:15:24.144Z,11.48
2023-05-12T08:17:51.016Z,11.55
2023-05-12T08:20:17.886Z,11.45
2023-05-12T08:22:44.823Z,11.29
2023-05-12T08:25:12.687Z,11.22
2023-05-12T08:27:39.793Z,11.23
2023-05-12T08:30:07.216Z,11.20
2023-05-12T08:32:34.163Z,11.21
2023-05-12T08:35:01.522Z,11.57
2023-05-12T08:37:28.398Z,11.36
2023-05-12T08:39:57.930Z,11.37
2023-05-12T08:42:31.886Z,11.75
2023-05-12T08:45:00.739Z,11.58
2023-05-12T08:47:27.712Z,11.97
2023-05-12T08:50:03.355Z,11.60
2023-05-12T08:52:34.795Z,11.69
2023-05-12T08:55:03.513Z,11.31
2023-05-12T08:57:31.553Z,11.32
2023-05-12T09:00:05.501Z,11.38
2023-05-12T09:02:44.724Z,11.39
2023-05-12T09:05:19.378Z,11.31
2023-05-12T09:07:47.251Z,11.23
2023-05-12T09:10:33.554Z,11.30
2023-05-12T09:13:13.229Z,11.63
2023-05-12T09:15:43.176Z,11.43
2023-05-12T09:18:10.116Z,11.15
2023-05-12T09:20:37.182Z,11.50
2023-05-12T09:23:20.463Z,11.46
2023-05-12T09:25:47.469Z,11.30
2023-05-12T09:28:14.776Z,11.37
2023-05-12T09:30:42.847Z,11.49
2023-05-12T09:33:11.798Z,11.40
2023-05-12T09:35:42.951Z,11.09
2023-05-12T09:38:11.843Z,11.24
2023-05-12T09:40:38.951Z,11.03
2023-05-12T09:43:06.210Z,11.59
2023-05-12T09:45:36.979Z,11.48
2023-05-12T09:48:11.653Z,11.50
2023-05-12T09:50:48.761Z,11.26
2023-05-12T09:53:17.990Z,11.57
2023-05-12T09:55:46.249Z,11.68
2023-05-12T09:58:16.904Z,11.61
2023-05-12T10:01:12.976Z,11.20
2023-05-12T10:03:32.329Z,11.33
2023-05-12T10:06:01.721Z,11.42
2023-05-12T10:08:38.352Z,11.39
2023-05-12T10:11:06.974Z,11.65
2023-05-12T10:13:34.241Z,11.68
2023-05-12T10:16:01.730Z,11.54
2023-05-12T10:18:28.602Z,11.18
2023-05-12T10:20:56.905Z,11.00
2023-05-12T10:23:23.857Z,11.39
2023-05-12T10:25:50.905Z,11.55
2023-05-12T10:28:17.881Z,11.40
2023-05-12T10:30:45.521Z,11.87
2023-05-12T10:33:12.704Z,11.59
2023-05-12T10:35:40.308Z,11.99
2023-05-12T10:38:20.852Z,11.99
2023-05-12T10:40:59.456Z,11.73
2023-05-12T10:43:28.108Z,11.49
2023-05-12T10:46:13.336Z,11.87
2023-05-12T10:49:04.465Z,11.90
2023-05-12T10:51:33.344Z,11.88
2023-05-12T10:54:07.974Z,11.64
2023-05-12T10:56:38.417Z,12.06
2023-05-12T10:59:25.433Z,11.85
2023-05-12T11:02:15.731Z,11.96
2023-05-12T11:04:55.719Z,12.17
2023-05-12T11:07:24.926Z,11.87
2023-05-12T11:09:57.732Z,12.09
2023-05-12T11:12:27.427Z,12.38
2023-05-12T11:14:54.689Z,12.77
2023-05-12T11:17:21.714Z,12.57
2023-05-12T11:19:50.667Z,12.29
2023-05-12T11:22:22.247Z,12.11
2023-05-12T11:24:50.277Z,12.48
2023-05-12T11:27:19.637Z,12.27
2023-05-12T11:30:00.246Z,12.66
2023-05-12T11:32:27.774Z,12.22
2023-05-12T11:34:54.785Z,12.70
2023-05-12T11:37:22.555Z,12.30
2023-05-12T11:39:49.528Z,11.91
2023-05-12T11:42:20.063Z,11.70
2023-05-12T11:44:48.592Z,12.23
2023-05-12T11:47:16.740Z,12.42
2023-05-12T11:49:54.836Z,12.75
2023-05-12T11:52:23.718Z,12.07
2023-05-12T11:54:57.585Z,12.80
2023-05-12T11:57:28.669Z,12.47
2023-05-12T12:00:08.039Z,12.76
2023-05-12T12:02:36.944Z,12.02
2023-05-12T12:05:07.863Z,12.25
2023-05-12T12:07:36.968Z,12.06
2023-05-12T12:10:16.914Z,11.97
2023-05-12T12:12:44.600Z,12.19
2023-05-12T12:15:12.234Z,12.58
2023-05-12T12:17:40.207Z,12.80
2023-05-12T12:20:08.505Z,12.09
2023-05-12T12:22:35.638Z,12.05
2023-05-12T12:25:03.649Z,12.48
2023-05-12T12:27:30.692Z,12.09
2023-05-12T12:29:57.561Z,11.91
2023-05-12T12:32:24.504Z,11.94
2023-05-12T12:34:52.057Z,11.96
2023-05-12T12:37:18.984Z,12.07
2023-05-12T12:39:48.222Z,12.34
2023-05-12T12:42:18.275Z,12.65
2023-05-12T12:44:46.273Z,12.51
2023-05-12T12:47:13.702Z,12.07
2023-05-12T12:49:40.648Z,12.05
2023-05-12T12:52:07.795Z,11.67
2023-05-12T12:54:35.054Z,11.93
2023-05-12T12:57:01.921Z,12.33
2023-05-12T12:59:29.791Z,12.24
2023-05-12T13:02:00.112Z,12.00
2023-05-12T13:04:27.291Z,11.73
2023-05-12T13:06:54.144Z,11.73
2023-05-12T13:09:23.676Z,11.72
2023-05-12T13:11:54.202Z,11.95
2023-05-12T13:16:57.152Z,11.95
2023-05-12T13:22:57.167Z,12.96
2023-05-12T13:25:30.248Z,12.09
2023-05-12T13:27:57.349Z,12.03
2023-05-12T13:30:27.493Z,11.68
2023-05-12T13:33:00.414Z,12.02
2023-05-12T13:35:27.500Z,12.02
2023-05-12T13:43:07.607Z,11.74
2023-05-12T13:45:34.755Z,11.37
2023-05-12T13:48:01.773Z,11.34
2023-05-12T13:50:28.641Z,11.69
2023-05-12T13:52:55.520Z,12.12
2023-05-12T13:55:22.503Z,12.12
2023-05-12T13:57:49.539Z,11.47
2023-05-12T14:00:19.780Z,11.53
2023-05-12T14:02:46.765Z,11.65
2023-05-12T14:05:13.755Z,11.80
2023-05-12T14:07:42.732Z,11.30
2023-05-12T14:10:10.532Z,11.26
2023-05-12T14:12:37.413Z,11.63
2023-05-12T14:15:19.902Z,11.93
2023-05-12T14:17:51.628Z,11.62
2023-05-12T14:20:18.536Z,11.68
2023-05-12T14:22:45.405Z,11.69
2023-05-12T14:25:12.233Z,11.56
2023-05-12T14:27:39.017Z,11.53
2023-05-12T14:30:07.737Z,11.71
2023-05-12T14:32:34.693Z,11.55
2023-05-12T14:35:01.575Z,11.12
2023-05-12T14:37:28.457Z,11.22
2023-05-12T14:39:56.826Z,11.28
2023-05-12T14:42:23.960Z,11.62
2023-05-12T14:44:50.814Z,11.64
2023-05-12T14:47:17.976Z,11.48
2023-05-12T14:49:46.208Z,11.87
2023-05-12T14:52:13.081Z,11.69
2023-05-12T14:54:39.963Z,11.90
2023-05-12T14:57:07.187Z,11.92
2023-05-12T14:59:35.078Z,11.69
2023-05-12T15:02:02.127Z,12.00
2023-05-12T15:04:29.034Z,12.11
2023-05-12T15:06:55.919Z,12.11
2023-05-12T15:09:23.881Z,12.05
2023-05-12T15:11:51.702Z,11.77
2023-05-12T15:14:18.620Z,11.67
2023-05-12T15:16:45.517Z,11.85
2023-05-12T15:19:14.228Z,11.67
2023-05-12T15:21:44.317Z,11.58
2023-05-12T15:24:11.173Z,11.88
2023-05-12T15:26:40.274Z,12.13
2023-05-12T15:29:07.586Z,11.90
2023-05-12T15:31:35.275Z,12.04
2023-05-12T15:34:02.236Z,12.13
2023-05-12T15:36:29.698Z,12.39
2023-05-12T15:39:03.851Z,12.08
2023-05-12T15:41:30.838Z,12.20
2023-05-12T15:43:57.818Z,11.85
2023-05-12T15:46:24.711Z,11.68
2023-05-12T15:48:55.095Z,11.84
2023-05-12T15:51:21.992Z,11.63
2023-05-12T15:53:51.065Z,11.71
2023-05-12T15:56:17.931Z,12.20
2023-05-12T15:58:46.963Z,12.08
2023-05-12T16:01:14.364Z,11.88
2023-05-12T16:03:42.758Z,12.49
2023-05-12T16:06:09.899Z,11.87
2023-05-12T16:08:38.802Z,11.70
2023-05-12T16:11:09.679Z,12.43
2023-05-12T16:13:37.355Z,11.97
2023-05-12T16:16:06.162Z,12.10
2023-05-12T16:18:37.522Z,12.46
2023-05-12T16:21:10.033Z,12.51
2023-05-12T16:26:20.109Z,11.77
2023-05-12T16:29:07.072Z,11.99
2023-05-12T16:31:34.629Z,11.61
2023-05-12T16:34:03.576Z,11.94
2023-05-12T16:36:31.955Z,12.07
2023-05-12T16:38:59.849Z,11.85
2023-05-12T16:41:28.692Z,12.42
2023-05-12T16:43:55.762Z,12.29
2023-05-12T16:46:22.701Z,12.28
2023-05-12T16:48:49.603Z,12.37
2023-05-12T16:51:16.449Z,12.27
2023-05-12T16:53:43.437Z,12.42
2023-05-12T16:56:10.464Z,11.75
2023-05-12T16:58:37.394Z,11.60
2023-05-12T17:01:04.962Z,11.95
2023-05-12T17:03:32.075Z,12.27
2023-05-12T17:05:59.143Z,12.42
2023-05-12T17:08:37.017Z,12.02
2023-05-12T17:11:05.196Z,11.89
2023-05-12T17:13:35.816Z,12.18
2023-05-12T17:16:02.882Z,12.53
2023-05-12T17:21:22.567Z,12.24
2023-05-12T17:23:49.429Z,12.31
2023-05-12T17:26:16.685Z,12.33
2023-05-12T17:28:57.730Z,12.68
2023-05-12T17:31:24.623Z,12.48
2023-05-12T17:33:51.497Z,12.31
2023-05-12T17:36:18.881Z,12.74
2023-05-12T17:38:46.333Z,12.40
2023-05-12T17:41:13.666Z,12.32
2023-05-12T17:43:41.582Z,12.82
2023-05-12T17:46:09.303Z,12.80
2023-05-12T17:49:04.288Z,12.56
2023-05-12T17:51:31.161Z,12.50
2023-05-12T17:53:58.021Z,12.61
2023-05-12T17:56:24.931Z,12.50
2023-05-12T17:58:51.817Z,13.16
2023-05-12T18:01:18.746Z,12.92
2023-05-12T18:03:46.103Z,12.61
2023-05-12T18:06:15.076Z,12.82
2023-05-12T18:08:41.952Z,12.65
2023-05-12T18:11:08.795Z,12.92
2023-05-12T18:13:35.651Z,12.43
2023-05-12T18:16:02.551Z,12.41
2023-05-12T18:18:29.871Z,12.38
2023-05-12T18:20:56.966Z,12.63
2023-05-12T18:23:23.832Z,12.51
2023-05-12T18:25:51.283Z,12.22
2023-05-12T18:28:18.188Z,12.37
2023-05-12T18:30:45.149Z,12.07
2023-05-12T18:33:12.036Z,12.40
2023-05-12T18:35:38.963Z,12.95
2023-05-12T18:38:07.238Z,13.13
2023-05-12T18:40:34.710Z,12.98
2023-05-12T18:43:02.071Z,12.91
2023-05-12T18:45:28.973Z,12.18
2023-05-12T18:47:55.970Z,12.71
2023-05-12T18:50:23.053Z,12.72
2023-05-12T18:52:49.938Z,12.65
2023-05-12T18:55:16.806Z,12.36
2023-05-12T18:57:43.627Z,12.16
2023-05-12T19:00:10.547Z,12.26
2023-05-12T19:02:37.640Z,12.30
2023-05-12T19:05:04.832Z,12.27
2023-05-12T19:07:31.709Z,12.36
2023-05-12T19:09:58.557Z,12.02
2023-05-12T19:12:25.609Z,11.82
2023-05-12T19:14:52.476Z,12.26
2023-05-12T19:17:19.440Z,12.34
2023-05-12T19:19:46.294Z,11.70
2023-05-12T19:22:13.131Z,11.98
2023-05-12T19:24:40.076Z,12.71
2023-05-12T19:27:06.946Z,12.50
2023-05-12T19:29:33.816Z,11.98
2023-05-12T19:32:00.806Z,11.71
2023-05-12T19:34:29.651Z,11.77
2023-05-12T19:36:58.391Z,12.27
2023-05-12T19:39:25.276Z,11.92
2023-05-12T19:41:52.145Z,11.85
2023-05-12T19:44:19.187Z,11.61
2023-05-12T19:46:48.809Z,11.75
2023-05-12T19:49:15.922Z,11.85
2023-05-12T19:51:42.792Z,12.15
2023-05-12T19:54:10.305Z,11.83
2023-05-12T19:56:37.536Z,12.18
2023-05-12T19:59:04.417Z,12.22
2023-05-12T20:01:31.446Z,12.10
2023-05-12T20:03:58.353Z,12.33
2023-05-12T20:06:25.290Z,12.30
2023-05-12T20:08:52.723Z,12.05
2023-05-12T20:11:19.581Z,12.04
2023-05-12T20:13:46.398Z,11.88
2023-05-12T20:16:13.102Z,12.20
2023-05-12T20:18:40.521Z,12.32
2023-05-12T20:21:07.365Z,12.78
2023-05-12T20:23:34.179Z,12.24
2023-05-12T20:26:00.903Z,12.19
2023-05-12T20:28:28.456Z,12.28
2023-05-12T20:30:55.331Z,12.58
2023-05-12T20:33:22.377Z,12.49
2023-05-12T20:35:49.234Z,12.53
2023-05-12T20:38:16.190Z,12.17
2023-05-12T20:40:43.012Z,12.12
2023-05-12T20:43:09.865Z,12.00
2023-05-12T20:45:37.094Z,12.22
2023-05-12T20:48:04.737Z,12.09
2023-05-12T20:50:31.779Z,12.04
2023-05-12T20:52:58.728Z,11.73
2023-05-12T20:55:25.924Z,12.31
2023-05-12T20:57:52.904Z,12.11
2023-05-12T21:00:19.935Z,12.06
2023-05-12T21:02:49.900Z,12.15
2023-05-12T21:05:16.785Z,11.94
2023-05-12T21:07:43.622Z,11.97
2023-05-12T21:10:10.633Z,12.10
2023-05-12T21:12:37.734Z,12.12
2023-05-12T21:15:05.037Z,11.96
2023-05-12T21:17:31.988Z,12.53
2023-05-12T21:19:59.377Z,11.88
2023-05-12T21:22:26.882Z,12.13
2023-05-12T21:24:53.692Z,11.70
2023-05-12T21:27:20.327Z,12.06
2023-05-12T21:29:47.160Z,11.75
2023-05-12T21:32:14.071Z,11.87
2023-05-12T21:34:40.971Z,12.02
2023-05-12T21:37:07.858Z,11.98
2023-05-12T21:39:34.698Z,11.70
2023-05-12T21:42:01.756Z,11.86
2023-05-12T21:44:28.577Z,11.73
2023-05-12T21:46:55.207Z,11.90
2023-05-12T21:49:22.141Z,12.20
2023-05-12T21:51:49.019Z,12.06
2023-05-12T21:54:15.859Z,12.64
2023-05-12T21:56:43.130Z,12.25
2023-05-12T21:59:10.013Z,11.84
2023-05-12T22:01:37.074Z,12.28
2023-05-12T22:04:05.142Z,11.90
2023-05-12T22:06:32.328Z,12.11
2023-05-12T22:08:59.169Z,12.07
2023-05-12T22:11:26.074Z,11.91
2023-05-12T22:13:52.920Z,11.77
2023-05-12T22:16:23.642Z,11.19
2023-05-12T22:18:53.016Z,11.41
2023-05-12T22:21:19.864Z,11.64
2023-05-12T22:23:46.530Z,11.83
2023-05-12T22:26:13.394Z,12.33
2023-05-12T22:28:40.349Z,11.54
2023-05-12T22:31:07.158Z,11.97
2023-05-12T22:33:34.465Z,11.69
2023-05-12T22:36:01.774Z,11.97
2023-05-12T22:38:28.627Z,11.88
2023-05-12T22:40:55.569Z,11.94
2023-05-12T22:43:22.513Z,12.18
2023-05-12T22:45:52.668Z,12.01
2023-05-12T22:48:20.057Z,12.05
2023-05-12T22:50:46.974Z,12.07
2023-05-12T22:53:14.298Z,12.22
2023-05-12T22:55:41.416Z,11.87
2023-05-12T22:58:08.359Z,11.95
2023-05-12T23:00:35.254Z,12.13
2023-05-12T23:03:03.457Z,12.42
2023-05-12T23:05:30.393Z,12.41
2023-05-12T23:07:57.268Z,12.60
2023-05-12T23:10:24.298Z,12.92
2023-05-12T23:12:51.295Z,12.53
2023-05-12T23:15:18.728Z,12.84
2023-05-12T23:17:45.623Z,12.50
2023-05-12T23:20:12.908Z,12.32
2023-05-12T23:22:39.754Z,12.74
2023-05-12T23:25:07.153Z,12.67
2023-05-12T23:27:34.096Z,13.04
2023-05-12T23:30:00.912Z,13.32
2023-05-12T23:32:27.811Z,13.23
2023-05-12T23:34:54.791Z,12.78
2023-05-12T23:37:21.848Z,12.75
2023-05-12T23:39:48.697Z,13.32
2023-05-12T23:42:15.582Z,12.94
2023-05-12T23:44:42.402Z,12.80
2023-05-12T23:47:09.306Z,13.17
2023-05-12T23:49:36.253Z,13.24
2023-05-12T23:52:03.171Z,13.17
2023-05-12T23:54:29.998Z,13.26
2023-05-12T23:56:56.888Z,13.56
2023-05-12T23:59:23.739Z,13.24
